sensor_id;sensor_type;location;lat;lon;timestamp;temperature;humidity
38456;DHT22;24237;50.106;20.014;2023-07-31T00:00:45;21.30;97.60
38456;DHT22;24237;50.106;20.014;2023-07-31T00:03:11;21.30;61.10
38456;DHT22;24237;50.106;20.014;2023-07-31T00:05:37;21.10;99.90
38456;DHT22;24237;50.106;20.014;2023-07-31T00:08:03;21.10;99.90
38456;DHT22;24237;50.106;20.014;2023-07-31T00:10:28;21.10;95.00
38456;DHT22;24237;50.106;20.014;2023-07-31T00:12:54;21.10;99.90
38456;DHT22;24237;50.106;20.014;2023-07-31T00:15:19;20.90;99.90
38456;DHT22;24237;50.106;20.014;2023-07-31T00:17:45;20.80;99.90
38456;DHT22;24237;50.106;20.014;2023-07-31T00:20:11;20.90;99.90
38456;DHT22;24237;50.106;20.014;2023-07-31T00:22:36;21.00;99.90
38456;DHT22;24237;50.106;20.014;2023-07-31T00:25:02;21.00;99.90
38456;DHT22;24237;50.106;20.014;2023-07-31T00:27:28;20.90;99.90
38456;DHT22;24237;50.106;20.014;2023-07-31T00:29:53;20.60;1.00
38456;DHT22;24237;50.106;20.014;2023-07-31T00:32:19;20.70;1.00
38456;DHT22;24237;50.106;20.014;2023-07-31T00:34:44;20.60;1.00
38456;DHT22;24237;50.106;20.014;2023-07-31T00:37:10;20.60;1.00
38456;DHT22;24237;50.106;20.014;2023-07-31T00:39:36;20.70;1.00
38456;DHT22;24237;50.106;20.014;2023-07-31T00:42:02;20.60;1.00
38456;DHT22;24237;50.106;20.014;2023-07-31T00:44:27;20.60;1.00
38456;DHT22;24237;50.106;20.014;2023-07-31T00:46:54;20.50;1.00
38456;DHT22;24237;50.106;20.014;2023-07-31T00:49:20;20.50;1.00
38456;DHT22;24237;50.106;20.014;2023-07-31T00:51:46;20.40;85.30
38456;DHT22;24237;50.106;20.014;2023-07-31T00:54:12;20.30;99.90
38456;DHT22;24237;50.106;20.014;2023-07-31T00:56:38;20.30;99.90
38456;DHT22;24237;50.106;20.014;2023-07-31T00:59:03;20.20;99.90
38456;DHT22;24237;50.106;20.014;2023-07-31T01:01:29;20.20;99.90
38456;DHT22;24237;50.106;20.014;2023-07-31T01:03:55;20.20;99.90
38456;DHT22;24237;50.106;20.014;2023-07-31T01:09:23;20.20;99.90
38456;DHT22;24237;50.106;20.014;2023-07-31T01:11:57;20.10;99.90
38456;DHT22;24237;50.106;20.014;2023-07-31T01:14:25;20.10;99.90
38456;DHT22;24237;50.106;20.014;2023-07-31T01:16:50;20.10;99.90
38456;DHT22;24237;50.106;20.014;2023-07-31T01:19:19;20.10;99.90
38456;DHT22;24237;50.106;20.014;2023-07-31T01:27:34;19.70;30.00
38456;DHT22;24237;50.106;20.014;2023-07-31T01:30:15;19.70;97.50
38456;DHT22;24237;50.106;20.014;2023-07-31T01:32:43;19.70;99.90
38456;DHT22;24237;50.106;20.014;2023-07-31T01:35:09;19.60;99.90
38456;DHT22;24237;50.106;20.014;2023-07-31T01:37:35;19.70;99.90
38456;DHT22;24237;50.106;20.014;2023-07-31T01:40:00;19.50;99.90
38456;DHT22;24237;50.106;20.014;2023-07-31T01:42:26;19.40;99.90
38456;DHT22;24237;50.106;20.014;2023-07-31T01:44:52;19.50;99.90
38456;DHT22;24237;50.106;20.014;2023-07-31T01:47:17;19.50;99.90
38456;DHT22;24237;50.106;20.014;2023-07-31T01:49:43;19.40;99.90
38456;DHT22;24237;50.106;20.014;2023-07-31T01:52:08;19.50;99.90
38456;DHT22;24237;50.106;20.014;2023-07-31T01:54:34;19.50;99.90
38456;DHT22;24237;50.106;20.014;2023-07-31T01:56:59;19.50;99.90
38456;DHT22;24237;50.106;20.014;2023-07-31T01:59:25;19.50;99.90
38456;DHT22;24237;50.106;20.014;2023-07-31T02:01:50;19.70;99.90
38456;DHT22;24237;50.106;20.014;2023-07-31T02:04:16;19.90;99.90
38456;DHT22;24237;50.106;20.014;2023-07-31T02:06:43;19.80;99.90
38456;DHT22;24237;50.106;20.014;2023-07-31T02:09:08;19.80;99.90
38456;DHT22;24237;50.106;20.014;2023-07-31T02:11:34;19.70;99.90
38456;DHT22;24237;50.106;20.014;2023-07-31T02:13:59;19.80;99.90
38456;DHT22;24237;50.106;20.014;2023-07-31T02:16:25;19.60;99.90
38456;DHT22;24237;50.106;20.014;2023-07-31T02:18:51;19.60;99.90
38456;DHT22;24237;50.106;20.014;2023-07-31T02:21:16;19.50;99.90
38456;DHT22;24237;50.106;20.014;2023-07-31T02:23:42;19.60;99.90
38456;DHT22;24237;50.106;20.014;2023-07-31T02:26:07;19.50;1.00
38456;DHT22;24237;50.106;20.014;2023-07-31T02:28:33;19.60;1.00
38456;DHT22;24237;50.106;20.014;2023-07-31T02:30:59;19.60;1.00
38456;DHT22;24237;50.106;20.014;2023-07-31T02:33:24;19.60;1.00
38456;DHT22;24237;50.106;20.014;2023-07-31T02:35:50;19.50;1.00
38456;DHT22;24237;50.106;20.014;2023-07-31T02:38:15;19.50;1.00
38456;DHT22;24237;50.106;20.014;2023-07-31T02:40:41;19.60;1.00
38456;DHT22;24237;50.106;20.014;2023-07-31T02:43:07;19.50;1.00
38456;DHT22;24237;50.106;20.014;2023-07-31T02:45:33;19.60;1.00
38456;DHT22;24237;50.106;20.014;2023-07-31T02:47:59;19.70;1.00
38456;DHT22;24237;50.106;20.014;2023-07-31T02:50:24;19.60;1.00
38456;DHT22;24237;50.106;20.014;2023-07-31T02:52:50;19.70;1.00
38456;DHT22;24237;50.106;20.014;2023-07-31T02:55:15;19.50;1.00
38456;DHT22;24237;50.106;20.014;2023-07-31T02:57:41;19.40;1.00
38456;DHT22;24237;50.106;20.014;2023-07-31T03:00:07;19.50;1.00
38456;DHT22;24237;50.106;20.014;2023-07-31T03:02:33;19.60;1.00
38456;DHT22;24237;50.106;20.014;2023-07-31T03:04:58;19.60;1.00
38456;DHT22;24237;50.106;20.014;2023-07-31T03:07:24;19.60;1.00
38456;DHT22;24237;50.106;20.014;2023-07-31T03:09:49;19.30;1.00
38456;DHT22;24237;50.106;20.014;2023-07-31T03:12:15;19.30;1.00
38456;DHT22;24237;50.106;20.014;2023-07-31T03:14:41;19.50;1.00
38456;DHT22;24237;50.106;20.014;2023-07-31T03:17:06;19.40;1.00
38456;DHT22;24237;50.106;20.014;2023-07-31T03:19:32;19.50;1.00
38456;DHT22;24237;50.106;20.014;2023-07-31T03:21:58;19.60;1.00
38456;DHT22;24237;50.106;20.014;2023-07-31T03:24:24;19.60;1.00
38456;DHT22;24237;50.106;20.014;2023-07-31T03:26:50;19.70;99.90
38456;DHT22;24237;50.106;20.014;2023-07-31T03:29:15;19.70;1.00
38456;DHT22;24237;50.106;20.014;2023-07-31T03:31:41;19.60;1.00
38456;DHT22;24237;50.106;20.014;2023-07-31T03:34:06;19.60;99.90
38456;DHT22;24237;50.106;20.014;2023-07-31T03:36:32;19.60;1.00
38456;DHT22;24237;50.106;20.014;2023-07-31T03:38:58;19.50;1.00
38456;DHT22;24237;50.106;20.014;2023-07-31T03:41:23;19.70;99.90
38456;DHT22;24237;50.106;20.014;2023-07-31T03:43:50;19.70;99.90
38456;DHT22;24237;50.106;20.014;2023-07-31T03:46:22;19.80;99.90
38456;DHT22;24237;50.106;20.014;2023-07-31T03:48:48;19.80;99.90
38456;DHT22;24237;50.106;20.014;2023-07-31T03:51:13;19.90;99.90
38456;DHT22;24237;50.106;20.014;2023-07-31T03:53:39;19.90;99.90
38456;DHT22;24237;50.106;20.014;2023-07-31T03:56:04;19.90;99.90
38456;DHT22;24237;50.106;20.014;2023-07-31T03:58:30;19.90;99.90
38456;DHT22;24237;50.106;20.014;2023-07-31T04:00:56;19.90;99.90
38456;DHT22;24237;50.106;20.014;2023-07-31T04:03:21;19.90;99.90
38456;DHT22;24237;50.106;20.014;2023-07-31T04:05:47;20.10;99.90
38456;DHT22;24237;50.106;20.014;2023-07-31T04:08:12;20.30;1.00
38456;DHT22;24237;50.106;20.014;2023-07-31T04:10:38;20.40;1.00
38456;DHT22;24237;50.106;20.014;2023-07-31T04:13:03;20.20;1.00
38456;DHT22;24237;50.106;20.014;2023-07-31T04:15:29;20.10;56.60
38456;DHT22;24237;50.106;20.014;2023-07-31T04:17:55;20.10;57.80
38456;DHT22;24237;50.106;20.014;2023-07-31T04:20:20;20.10;99.90
38456;DHT22;24237;50.106;20.014;2023-07-31T04:22:46;20.20;1.00
38456;DHT22;24237;50.106;20.014;2023-07-31T04:25:11;20.20;1.00
38456;DHT22;24237;50.106;20.014;2023-07-31T04:27:37;20.50;99.90
38456;DHT22;24237;50.106;20.014;2023-07-31T04:30:03;20.60;99.90
38456;DHT22;24237;50.106;20.014;2023-07-31T04:32:29;20.90;99.90
38456;DHT22;24237;50.106;20.014;2023-07-31T04:34:55;20.80;98.50
38456;DHT22;24237;50.106;20.014;2023-07-31T04:37:20;20.50;99.90
38456;DHT22;24237;50.106;20.014;2023-07-31T04:39:46;20.20;1.00
38456;DHT22;24237;50.106;20.014;2023-07-31T04:42:12;20.00;1.00
38456;DHT22;24237;50.106;20.014;2023-07-31T04:44:37;20.30;1.00
38456;DHT22;24237;50.106;20.014;2023-07-31T04:47:03;20.40;99.90
38456;DHT22;24237;50.106;20.014;2023-07-31T04:49:29;20.30;1.00
38456;DHT22;24237;50.106;20.014;2023-07-31T04:51:54;20.10;1.00
38456;DHT22;24237;50.106;20.014;2023-07-31T04:54:20;20.10;1.00
38456;DHT22;24237;50.106;20.014;2023-07-31T04:56:45;20.40;99.90
38456;DHT22;24237;50.106;20.014;2023-07-31T04:59:11;20.50;99.90
38456;DHT22;24237;50.106;20.014;2023-07-31T05:01:36;20.60;99.90
38456;DHT22;24237;50.106;20.014;2023-07-31T05:04:02;20.50;99.90
38456;DHT22;24237;50.106;20.014;2023-07-31T05:06:28;20.70;99.90
38456;DHT22;24237;50.106;20.014;2023-07-31T05:08:53;20.70;38.90
38456;DHT22;24237;50.106;20.014;2023-07-31T05:11:19;20.50;99.90
38456;DHT22;24237;50.106;20.014;2023-07-31T05:13:44;20.40;99.90
38456;DHT22;24237;50.106;20.014;2023-07-31T05:16:10;20.50;99.90
38456;DHT22;24237;50.106;20.014;2023-07-31T05:18:35;20.50;99.90
38456;DHT22;24237;50.106;20.014;2023-07-31T05:21:01;20.60;99.90
38456;DHT22;24237;50.106;20.014;2023-07-31T05:23:27;20.40;99.90
38456;DHT22;24237;50.106;20.014;2023-07-31T05:25:53;20.40;99.90
38456;DHT22;24237;50.106;20.014;2023-07-31T05:28:18;20.40;27.30
38456;DHT22;24237;50.106;20.014;2023-07-31T05:30:44;20.30;99.90
38456;DHT22;24237;50.106;20.014;2023-07-31T05:33:09;20.30;99.90
38456;DHT22;24237;50.106;20.014;2023-07-31T05:35:35;20.40;99.90
38456;DHT22;24237;50.106;20.014;2023-07-31T05:38:00;20.50;92.60
38456;DHT22;24237;50.106;20.014;2023-07-31T05:40:26;20.60;20.90
38456;DHT22;24237;50.106;20.014;2023-07-31T05:42:52;20.90;1.00
38456;DHT22;24237;50.106;20.014;2023-07-31T05:45:17;20.80;99.90
38456;DHT22;24237;50.106;20.014;2023-07-31T05:47:43;20.90;99.90
38456;DHT22;24237;50.106;20.014;2023-07-31T05:50:09;21.00;99.90
38456;DHT22;24237;50.106;20.014;2023-07-31T05:52:34;21.00;99.90
38456;DHT22;24237;50.106;20.014;2023-07-31T05:55:00;21.10;99.90
38456;DHT22;24237;50.106;20.014;2023-07-31T05:57:26;21.10;99.90
38456;DHT22;24237;50.106;20.014;2023-07-31T05:59:52;21.00;63.20
38456;DHT22;24237;50.106;20.014;2023-07-31T06:02:18;20.70;99.90
38456;DHT22;24237;50.106;20.014;2023-07-31T06:04:44;20.70;99.90
38456;DHT22;24237;50.106;20.014;2023-07-31T06:07:09;20.60;99.90
38456;DHT22;24237;50.106;20.014;2023-07-31T06:09:36;20.70;99.90
38456;DHT22;24237;50.106;20.014;2023-07-31T06:12:02;20.70;99.90
38456;DHT22;24237;50.106;20.014;2023-07-31T06:14:27;20.70;99.90
38456;DHT22;24237;50.106;20.014;2023-07-31T06:16:53;20.70;95.40
38456;DHT22;24237;50.106;20.014;2023-07-31T06:19:21;20.90;1.00
38456;DHT22;24237;50.106;20.014;2023-07-31T06:21:46;21.10;1.00
38456;DHT22;24237;50.106;20.014;2023-07-31T06:24:12;21.30;99.90
38456;DHT22;24237;50.106;20.014;2023-07-31T06:26:38;21.40;99.90
38456;DHT22;24237;50.106;20.014;2023-07-31T06:29:04;21.50;99.90
38456;DHT22;24237;50.106;20.014;2023-07-31T06:31:29;21.60;99.90
38456;DHT22;24237;50.106;20.014;2023-07-31T06:33:55;21.90;95.40
38456;DHT22;24237;50.106;20.014;2023-07-31T06:36:23;21.80;1.00
38456;DHT22;24237;50.106;20.014;2023-07-31T06:38:48;21.90;1.00
38456;DHT22;24237;50.106;20.014;2023-07-31T06:41:14;21.60;9.20
38456;DHT22;24237;50.106;20.014;2023-07-31T06:43:40;21.50;99.90
38456;DHT22;24237;50.106;20.014;2023-07-31T06:46:06;21.40;99.90
38456;DHT22;24237;50.106;20.014;2023-07-31T06:48:32;21.50;99.90
38456;DHT22;24237;50.106;20.014;2023-07-31T06:50:58;21.60;91.30
38456;DHT22;24237;50.106;20.014;2023-07-31T06:53:24;21.60;99.90
38456;DHT22;24237;50.106;20.014;2023-07-31T06:55:49;21.70;1.80
38456;DHT22;24237;50.106;20.014;2023-07-31T06:58:17;21.70;1.00
38456;DHT22;24237;50.106;20.014;2023-07-31T07:00:43;21.60;17.00
38456;DHT22;24237;50.106;20.014;2023-07-31T07:03:08;21.90;1.00
38456;DHT22;24237;50.106;20.014;2023-07-31T07:05:34;22.10;1.00
38456;DHT22;24237;50.106;20.014;2023-07-31T07:08:00;22.10;99.90
38456;DHT22;24237;50.106;20.014;2023-07-31T07:10:25;22.20;99.90
38456;DHT22;24237;50.106;20.014;2023-07-31T07:12:51;22.10;99.90
38456;DHT22;24237;50.106;20.014;2023-07-31T07:15:17;22.40;83.50
38456;DHT22;24237;50.106;20.014;2023-07-31T07:17:42;22.40;1.00
38456;DHT22;24237;50.106;20.014;2023-07-31T07:20:08;22.60;1.00
38456;DHT22;24237;50.106;20.014;2023-07-31T07:22:34;22.80;99.90
38456;DHT22;24237;50.106;20.014;2023-07-31T07:25:00;22.80;99.90
38456;DHT22;24237;50.106;20.014;2023-07-31T07:27:25;22.40;99.90
38456;DHT22;24237;50.106;20.014;2023-07-31T07:29:51;22.50;99.90
38456;DHT22;24237;50.106;20.014;2023-07-31T07:32:18;22.40;99.90
38456;DHT22;24237;50.106;20.014;2023-07-31T07:34:43;22.60;99.90
38456;DHT22;24237;50.106;20.014;2023-07-31T07:37:09;22.70;64.20
38456;DHT22;24237;50.106;20.014;2023-07-31T07:39:35;22.50;99.90
38456;DHT22;24237;50.106;20.014;2023-07-31T07:42:01;22.60;99.90
38456;DHT22;24237;50.106;20.014;2023-07-31T07:44:26;22.70;99.90
38456;DHT22;24237;50.106;20.014;2023-07-31T07:46:52;22.80;50.80
38456;DHT22;24237;50.106;20.014;2023-07-31T07:49:18;22.90;23.40
38456;DHT22;24237;50.106;20.014;2023-07-31T07:51:43;22.80;4.50
38456;DHT22;24237;50.106;20.014;2023-07-31T07:54:09;22.90;20.10
38456;DHT22;24237;50.106;20.014;2023-07-31T07:56:34;22.60;63.20
38456;DHT22;24237;50.106;20.014;2023-07-31T07:59:01;22.40;97.50
38456;DHT22;24237;50.106;20.014;2023-07-31T08:01:27;22.50;60.70
38456;DHT22;24237;50.106;20.014;2023-07-31T08:03:52;22.30;99.90
38456;DHT22;24237;50.106;20.014;2023-07-31T08:06:18;22.50;99.90
38456;DHT22;24237;50.106;20.014;2023-07-31T08:08:44;22.50;66.60
38456;DHT22;24237;50.106;20.014;2023-07-31T08:11:09;22.50;77.30
38456;DHT22;24237;50.106;20.014;2023-07-31T08:13:35;22.60;4.10
38456;DHT22;24237;50.106;20.014;2023-07-31T08:16:04;22.60;1.00
38456;DHT22;24237;50.106;20.014;2023-07-31T08:18:31;22.60;1.00
38456;DHT22;24237;50.106;20.014;2023-07-31T08:20:57;22.60;1.00
38456;DHT22;24237;50.106;20.014;2023-07-31T08:23:23;22.70;1.00
38456;DHT22;24237;50.106;20.014;2023-07-31T08:25:49;22.80;1.00
38456;DHT22;24237;50.106;20.014;2023-07-31T08:28:16;22.90;1.00
38456;DHT22;24237;50.106;20.014;2023-07-31T08:30:42;23.10;99.90
38456;DHT22;24237;50.106;20.014;2023-07-31T08:33:07;23.50;99.90
38456;DHT22;24237;50.106;20.014;2023-07-31T08:35:33;23.60;99.90
38456;DHT22;24237;50.106;20.014;2023-07-31T08:37:59;23.50;97.60
38456;DHT22;24237;50.106;20.014;2023-07-31T08:40:25;23.70;48.70
38456;DHT22;24237;50.106;20.014;2023-07-31T08:42:56;23.70;44.60
38456;DHT22;24237;50.106;20.014;2023-07-31T08:45:27;23.50;99.90
38456;DHT22;24237;50.106;20.014;2023-07-31T08:47:53;23.50;99.90
38456;DHT22;24237;50.106;20.014;2023-07-31T08:50:21;23.50;99.90
38456;DHT22;24237;50.106;20.014;2023-07-31T08:52:48;23.40;99.90
38456;DHT22;24237;50.106;20.014;2023-07-31T08:55:14;23.50;99.90
38456;DHT22;24237;50.106;20.014;2023-07-31T08:57:39;22.80;99.90
38456;DHT22;24237;50.106;20.014;2023-07-31T09:00:08;22.70;99.90
38456;DHT22;24237;50.106;20.014;2023-07-31T09:02:57;22.80;99.90
38456;DHT22;24237;50.106;20.014;2023-07-31T09:05:26;23.10;99.90
38456;DHT22;24237;50.106;20.014;2023-07-31T09:07:53;23.30;99.90
38456;DHT22;24237;50.106;20.014;2023-07-31T09:10:20;23.40;99.90
38456;DHT22;24237;50.106;20.014;2023-07-31T09:12:45;23.60;99.90
38456;DHT22;24237;50.106;20.014;2023-07-31T09:15:12;23.70;13.60
38456;DHT22;24237;50.106;20.014;2023-07-31T09:17:37;23.60;1.00
38456;DHT22;24237;50.106;20.014;2023-07-31T09:20:19;23.60;1.00
38456;DHT22;24237;50.106;20.014;2023-07-31T09:22:46;23.50;1.00
38456;DHT22;24237;50.106;20.014;2023-07-31T09:30:28;22.90;41.50
38456;DHT22;24237;50.106;20.014;2023-07-31T09:33:04;23.20;99.90
38456;DHT22;24237;50.106;20.014;2023-07-31T09:35:33;23.20;24.50
38456;DHT22;24237;50.106;20.014;2023-07-31T09:38:03;23.20;59.60
38456;DHT22;24237;50.106;20.014;2023-07-31T09:43:03;23.60;1.00
38456;DHT22;24237;50.106;20.014;2023-07-31T09:45:32;23.60;1.00
38456;DHT22;24237;50.106;20.014;2023-07-31T09:47:58;23.50;99.90
38456;DHT22;24237;50.106;20.014;2023-07-31T09:50:27;23.50;99.90
38456;DHT22;24237;50.106;20.014;2023-07-31T09:52:53;23.80;99.90
38456;DHT22;24237;50.106;20.014;2023-07-31T09:55:19;24.10;99.90
38456;DHT22;24237;50.106;20.014;2023-07-31T09:57:47;24.10;99.90
38456;DHT22;24237;50.106;20.014;2023-07-31T10:00:14;24.30;99.90
38456;DHT22;24237;50.106;20.014;2023-07-31T10:02:41;24.40;99.90
38456;DHT22;24237;50.106;20.014;2023-07-31T10:05:07;24.50;99.90
38456;DHT22;24237;50.106;20.014;2023-07-31T10:07:39;24.90;58.30
38456;DHT22;24237;50.106;20.014;2023-07-31T10:10:08;24.70;1.00
38456;DHT22;24237;50.106;20.014;2023-07-31T10:12:35;24.60;1.00
38456;DHT22;24237;50.106;20.014;2023-07-31T10:15:02;24.80;1.00
38456;DHT22;24237;50.106;20.014;2023-07-31T10:17:30;25.00;99.90
38456;DHT22;24237;50.106;20.014;2023-07-31T10:19:58;24.80;99.90
38456;DHT22;24237;50.106;20.014;2023-07-31T10:22:26;24.90;99.90
38456;DHT22;24237;50.106;20.014;2023-07-31T10:24:52;25.00;99.90
38456;DHT22;24237;50.106;20.014;2023-07-31T10:27:20;24.70;99.90
38456;DHT22;24237;50.106;20.014;2023-07-31T10:29:46;24.60;99.90
38456;DHT22;24237;50.106;20.014;2023-07-31T10:32:13;24.70;99.90
38456;DHT22;24237;50.106;20.014;2023-07-31T10:34:40;24.90;98.50
38456;DHT22;24237;50.106;20.014;2023-07-31T10:37:25;25.00;1.00
38456;DHT22;24237;50.106;20.014;2023-07-31T10:40:03;24.80;1.00
38456;DHT22;24237;50.106;20.014;2023-07-31T10:42:33;25.30;1.00
38456;DHT22;24237;50.106;20.014;2023-07-31T10:45:02;25.40;1.00
38456;DHT22;24237;50.106;20.014;2023-07-31T10:47:28;25.40;1.00
38456;DHT22;24237;50.106;20.014;2023-07-31T10:50:17;25.10;1.00
38456;DHT22;24237;50.106;20.014;2023-07-31T10:52:51;25.30;1.00
38456;DHT22;24237;50.106;20.014;2023-07-31T10:55:26;25.60;99.90
38456;DHT22;24237;50.106;20.014;2023-07-31T10:57:53;25.50;99.90
38456;DHT22;24237;50.106;20.014;2023-07-31T11:02:59;25.40;99.90
38456;DHT22;24237;50.106;20.014;2023-07-31T11:05:47;25.70;99.90
38456;DHT22;24237;50.106;20.014;2023-07-31T11:08:14;25.50;99.90
38456;DHT22;24237;50.106;20.014;2023-07-31T11:10:39;25.60;99.90
38456;DHT22;24237;50.106;20.014;2023-07-31T11:13:05;25.70;99.90
38456;DHT22;24237;50.106;20.014;2023-07-31T11:15:31;25.70;99.90
38456;DHT22;24237;50.106;20.014;2023-07-31T11:17:57;25.70;99.90
38456;DHT22;24237;50.106;20.014;2023-07-31T11:20:25;25.70;99.90
38456;DHT22;24237;50.106;20.014;2023-07-31T11:22:52;25.40;99.90
38456;DHT22;24237;50.106;20.014;2023-07-31T11:25:18;25.50;99.90
38456;DHT22;24237;50.106;20.014;2023-07-31T11:27:43;25.60;99.90
38456;DHT22;24237;50.106;20.014;2023-07-31T11:30:09;25.40;99.90
38456;DHT22;24237;50.106;20.014;2023-07-31T11:32:38;25.50;99.90
38456;DHT22;24237;50.106;20.014;2023-07-31T11:35:04;25.90;99.90
38456;DHT22;24237;50.106;20.014;2023-07-31T11:37:41;25.50;99.90
38456;DHT22;24237;50.106;20.014;2023-07-31T11:40:07;25.70;99.90
38456;DHT22;24237;50.106;20.014;2023-07-31T11:42:37;26.20;99.90
38456;DHT22;24237;50.106;20.014;2023-07-31T11:45:06;26.40;99.90
38456;DHT22;24237;50.106;20.014;2023-07-31T11:47:33;26.60;92.30
38456;DHT22;24237;50.106;20.014;2023-07-31T11:50:03;26.90;90.90
38456;DHT22;24237;50.106;20.014;2023-07-31T11:52:36;27.20;53.10
38456;DHT22;24237;50.106;20.014;2023-07-31T11:55:03;27.10;2.90
38456;DHT22;24237;50.106;20.014;2023-07-31T11:57:29;26.60;1.00
38456;DHT22;24237;50.106;20.014;2023-07-31T11:59:55;26.50;1.00
38456;DHT22;24237;50.106;20.014;2023-07-31T12:02:22;26.30;1.00
38456;DHT22;24237;50.106;20.014;2023-07-31T12:04:48;26.10;1.00
38456;DHT22;24237;50.106;20.014;2023-07-31T12:07:13;26.20;1.00
38456;DHT22;24237;50.106;20.014;2023-07-31T12:09:53;26.40;1.00
38456;DHT22;24237;50.106;20.014;2023-07-31T12:12:20;26.00;1.00
38456;DHT22;24237;50.106;20.014;2023-07-31T12:14:46;25.90;1.00
38456;DHT22;24237;50.106;20.014;2023-07-31T12:17:12;25.90;1.00
38456;DHT22;24237;50.106;20.014;2023-07-31T12:19:37;26.20;1.00
38456;DHT22;24237;50.106;20.014;2023-07-31T12:22:14;26.50;1.00
38456;DHT22;24237;50.106;20.014;2023-07-31T12:24:44;26.90;1.00
38456;DHT22;24237;50.106;20.014;2023-07-31T12:27:14;27.30;1.00
38456;DHT22;24237;50.106;20.014;2023-07-31T12:29:42;27.10;1.00
38456;DHT22;24237;50.106;20.014;2023-07-31T12:32:21;27.10;1.00
38456;DHT22;24237;50.106;20.014;2023-07-31T12:34:47;27.00;1.00
38456;DHT22;24237;50.106;20.014;2023-07-31T12:37:12;27.30;1.00
38456;DHT22;24237;50.106;20.014;2023-07-31T12:39:38;27.90;1.00
38456;DHT22;24237;50.106;20.014;2023-07-31T12:42:04;27.90;1.00
38456;DHT22;24237;50.106;20.014;2023-07-31T12:44:30;27.90;1.00
38456;DHT22;24237;50.106;20.014;2023-07-31T12:46:56;28.00;99.90
38456;DHT22;24237;50.106;20.014;2023-07-31T12:49:21;28.30;99.90
38456;DHT22;24237;50.106;20.014;2023-07-31T12:51:47;28.10;99.90
38456;DHT22;24237;50.106;20.014;2023-07-31T12:54:12;27.80;99.90
38456;DHT22;24237;50.106;20.014;2023-07-31T12:56:38;28.40;99.90
38456;DHT22;24237;50.106;20.014;2023-07-31T12:59:03;29.10;99.90
38456;DHT22;24237;50.106;20.014;2023-07-31T13:01:29;29.50;99.90
38456;DHT22;24237;50.106;20.014;2023-07-31T13:03:55;29.80;99.90
38456;DHT22;24237;50.106;20.014;2023-07-31T13:06:20;30.30;99.90
38456;DHT22;24237;50.106;20.014;2023-07-31T13:08:46;30.70;99.90
38456;DHT22;24237;50.106;20.014;2023-07-31T13:11:12;31.00;99.90
38456;DHT22;24237;50.106;20.014;2023-07-31T13:13:37;31.40;99.90
38456;DHT22;24237;50.106;20.014;2023-07-31T13:16:03;32.20;99.90
38456;DHT22;24237;50.106;20.014;2023-07-31T13:18:28;32.30;99.90
38456;DHT22;24237;50.106;20.014;2023-07-31T13:20:54;32.40;99.90
38456;DHT22;24237;50.106;20.014;2023-07-31T13:23:19;31.50;99.90
38456;DHT22;24237;50.106;20.014;2023-07-31T13:25:45;31.60;99.90
38456;DHT22;24237;50.106;20.014;2023-07-31T13:28:11;32.10;99.90
38456;DHT22;24237;50.106;20.014;2023-07-31T13:30:36;32.60;99.90
38456;DHT22;24237;50.106;20.014;2023-07-31T13:33:02;32.50;99.90
38456;DHT22;24237;50.106;20.014;2023-07-31T13:35:27;31.90;99.90
38456;DHT22;24237;50.106;20.014;2023-07-31T13:37:54;31.10;99.90
38456;DHT22;24237;50.106;20.014;2023-07-31T13:40:21;30.40;99.90
38456;DHT22;24237;50.106;20.014;2023-07-31T13:42:46;30.60;99.90
38456;DHT22;24237;50.106;20.014;2023-07-31T13:45:13;31.40;99.90
38456;DHT22;24237;50.106;20.014;2023-07-31T13:47:39;31.20;99.90
38456;DHT22;24237;50.106;20.014;2023-07-31T13:50:05;30.70;99.90
38456;DHT22;24237;50.106;20.014;2023-07-31T13:52:30;30.90;99.90
38456;DHT22;24237;50.106;20.014;2023-07-31T13:54:56;31.70;99.90
38456;DHT22;24237;50.106;20.014;2023-07-31T13:57:21;31.90;99.90
38456;DHT22;24237;50.106;20.014;2023-07-31T13:59:49;31.00;99.90
38456;DHT22;24237;50.106;20.014;2023-07-31T14:02:14;30.00;99.90
38456;DHT22;24237;50.106;20.014;2023-07-31T14:04:40;29.30;99.90
38456;DHT22;24237;50.106;20.014;2023-07-31T14:07:06;29.10;99.90
38456;DHT22;24237;50.106;20.014;2023-07-31T14:09:32;30.10;99.90
38456;DHT22;24237;50.106;20.014;2023-07-31T14:11:57;30.60;99.90
38456;DHT22;24237;50.106;20.014;2023-07-31T14:14:23;30.70;99.90
38456;DHT22;24237;50.106;20.014;2023-07-31T14:16:48;31.10;99.90
38456;DHT22;24237;50.106;20.014;2023-07-31T14:19:14;31.40;99.90
38456;DHT22;24237;50.106;20.014;2023-07-31T14:21:40;31.40;99.90
38456;DHT22;24237;50.106;20.014;2023-07-31T14:24:05;31.10;99.90
38456;DHT22;24237;50.106;20.014;2023-07-31T14:26:31;31.00;99.90
38456;DHT22;24237;50.106;20.014;2023-07-31T14:28:57;31.00;99.90
38456;DHT22;24237;50.106;20.014;2023-07-31T14:31:23;31.70;99.90
38456;DHT22;24237;50.106;20.014;2023-07-31T14:33:48;32.10;99.90
38456;DHT22;24237;50.106;20.014;2023-07-31T14:36:14;32.70;99.90
38456;DHT22;24237;50.106;20.014;2023-07-31T14:38:39;33.50;99.90
38456;DHT22;24237;50.106;20.014;2023-07-31T14:41:05;32.90;99.90
38456;DHT22;24237;50.106;20.014;2023-07-31T14:43:30;33.40;99.90
38456;DHT22;24237;50.106;20.014;2023-07-31T14:45:57;33.50;99.90
38456;DHT22;24237;50.106;20.014;2023-07-31T14:48:25;33.70;99.90
38456;DHT22;24237;50.106;20.014;2023-07-31T14:50:51;33.30;99.90
38456;DHT22;24237;50.106;20.014;2023-07-31T14:53:16;33.10;99.90
38456;DHT22;24237;50.106;20.014;2023-07-31T14:55:42;33.00;99.90
38456;DHT22;24237;50.106;20.014;2023-07-31T14:58:07;32.90;99.90
38456;DHT22;24237;50.106;20.014;2023-07-31T15:00:35;32.30;99.90
38456;DHT22;24237;50.106;20.014;2023-07-31T15:03:02;32.30;99.90
38456;DHT22;24237;50.106;20.014;2023-07-31T15:05:28;32.20;99.90
38456;DHT22;24237;50.106;20.014;2023-07-31T15:07:53;32.10;99.90
38456;DHT22;24237;50.106;20.014;2023-07-31T15:10:19;31.50;99.90
38456;DHT22;24237;50.106;20.014;2023-07-31T15:12:44;31.20;99.90
38456;DHT22;24237;50.106;20.014;2023-07-31T15:15:10;31.00;99.90
38456;DHT22;24237;50.106;20.014;2023-07-31T15:17:36;31.20;99.90
38456;DHT22;24237;50.106;20.014;2023-07-31T15:20:01;31.00;99.90
38456;DHT22;24237;50.106;20.014;2023-07-31T15:22:27;30.20;99.90
38456;DHT22;24237;50.106;20.014;2023-07-31T15:24:53;29.70;99.90
38456;DHT22;24237;50.106;20.014;2023-07-31T15:27:18;29.70;99.90
38456;DHT22;24237;50.106;20.014;2023-07-31T15:29:44;29.50;99.90
38456;DHT22;24237;50.106;20.014;2023-07-31T15:32:09;29.40;99.90
38456;DHT22;24237;50.106;20.014;2023-07-31T15:34:35;28.90;99.90